createdAt,value
2022-09-25T00:00:29.946Z,2.97
2022-09-25T00:02:59.575Z,2.97
2022-09-25T00:05:33.437Z,2.88
2022-09-25T00:08:00.318Z,3.08
2022-09-25T00:10:30.031Z,3.10
2022-09-25T00:13:00.930Z,2.70
2022-09-25T00:15:27.917Z,2.65
2022-09-25T00:18:00.102Z,2.45
2022-09-25T00:20:27.090Z,2.38
2022-09-25T00:22:55.063Z,3.33
2022-09-25T00:25:23.488Z,2.78
2022-09-25T00:27:56.428Z,3.05
2022-09-25T00:30:32.542Z,3.13
2022-09-25T00:33:00.794Z,3.28
2022-09-25T00:35:27.560Z,2.83
2022-09-25T00:37:54.640Z,3.05
2022-09-25T00:40:21.448Z,2.97
2022-09-25T00:42:51.094Z,3.28
2022-09-25T00:45:24.179Z,2.65
2022-09-25T00:47:59.756Z,2.67
2022-09-25T00:50:34.058Z,2.53
2022-09-25T00:53:05.772Z,2.33
2022-09-25T00:55:34.003Z,2.75
2022-09-25T00:58:02.842Z,2.95
2022-09-25T01:00:31.470Z,3.00
2022-09-25T01:03:00.249Z,2.83
2022-09-25T01:05:33.434Z,2.25
2022-09-25T01:08:02.862Z,2.60
2022-09-25T01:10:35.140Z,2.10
2022-09-25T01:13:03.202Z,1.98
2022-09-25T01:15:38.557Z,1.88
2022-09-25T01:18:16.280Z,2.10
2022-09-25T01:24:35.891Z,2.15
2022-09-25T01:27:40.454Z,2.30
2022-09-25T01:30:14.449Z,2.42
2022-09-25T01:32:55.557Z,2.67
2022-09-25T01:35:36.312Z,1.50
2022-09-25T01:38:11.216Z,1.73
2022-09-25T01:40:45.161Z,2.38
2022-09-25T01:43:17.214Z,2.20
2022-09-25T01:45:51.399Z,2.22
2022-09-25T01:48:23.096Z,2.92
2022-09-25T01:50:53.438Z,2.17
2022-09-25T01:53:23.706Z,2.40
2022-09-25T01:56:05.119Z,1.80
2022-09-25T02:01:42.660Z,1.75
2022-09-25T02:04:14.421Z,2.28
2022-09-25T02:06:48.196Z,1.80
2022-09-25T02:09:22.034Z,2.17
2022-09-25T02:14:48.464Z,1.77
2022-09-25T02:17:23.690Z,2.95
2022-09-25T02:19:50.566Z,2.33
2022-09-25T02:22:20.940Z,1.85
2022-09-25T02:24:56.478Z,2.30
2022-09-25T02:27:29.627Z,2.60
2022-09-25T02:29:57.480Z,2.10
2022-09-25T02:32:29.823Z,2.22
2022-09-25T02:34:57.759Z,1.90
2022-09-25T02:37:24.861Z,2.03
2022-09-25T02:39:54.634Z,1.67
2022-09-25T02:42:32.240Z,2.35
2022-09-25T02:45:10.421Z,1.90
2022-09-25T02:47:44.899Z,1.60
2022-09-25T02:50:21.218Z,1.90
2022-09-25T02:52:59.047Z,2.10
2022-09-25T02:55:34.633Z,1.92
2022-09-25T02:58:07.398Z,2.60
2022-09-25T03:00:36.854Z,2.33
2022-09-25T03:03:08.748Z,2.72
2022-09-25T03:05:36.803Z,2.15
2022-09-25T03:08:04.856Z,1.60
2022-09-25T03:10:35.091Z,2.35
2022-09-25T03:13:14.045Z,2.08
2022-09-25T03:15:44.469Z,1.60
2022-09-25T03:18:16.405Z,2.03
2022-09-25T03:20:43.301Z,1.98
2022-09-25T03:23:10.116Z,1.77
2022-09-25T03:25:36.722Z,1.90
2022-09-25T03:28:13.492Z,2.17
2022-09-25T03:30:42.648Z,2.80
2022-09-25T03:33:11.432Z,2.47
2022-09-25T03:35:40.150Z,1.80
2022-09-25T03:38:07.857Z,1.50
2022-09-25T03:40:34.614Z,1.60
2022-09-25T03:45:28.694Z,1.38
2022-09-25T03:47:55.396Z,1.02
2022-09-25T03:50:22.254Z,1.17
2022-09-25T03:52:50.513Z,1.73
2022-09-25T03:55:17.351Z,1.60
2022-09-25T03:57:44.094Z,0.80
2022-09-25T04:00:12.008Z,0.80
2022-09-25T04:02:38.954Z,1.10
2022-09-25T04:05:07.867Z,1.33
2022-09-25T04:07:34.627Z,1.42
2022-09-25T04:10:03.212Z,0.90
2022-09-25T04:12:30.360Z,0.80
2022-09-25T04:14:57.041Z,0.90
2022-09-25T04:17:24.079Z,0.80
2022-09-25T04:19:50.917Z,0.90
2022-09-25T04:22:17.595Z,1.00
2022-09-25T04:24:44.236Z,1.17
2022-09-25T04:27:12.491Z,1.02
2022-09-25T04:29:39.128Z,0.98
2022-09-25T04:32:10.231Z,1.17
2022-09-25T04:34:36.931Z,1.02
2022-09-25T04:37:03.880Z,1.23
2022-09-25T04:39:30.832Z,1.10
2022-09-25T04:41:57.797Z,1.23
2022-09-25T04:44:25.922Z,0.88
2022-09-25T04:46:52.780Z,1.08
2022-09-25T04:49:19.461Z,1.40
2022-09-25T04:51:46.069Z,1.70
2022-09-25T04:54:12.973Z,2.15
2022-09-25T04:56:39.634Z,1.50
2022-09-25T04:59:06.332Z,1.10
2022-09-25T05:01:37.244Z,1.30
2022-09-25T05:04:08.476Z,1.00
2022-09-25T05:06:36.056Z,1.23
2022-09-25T05:09:02.864Z,1.00
2022-09-25T05:11:29.882Z,1.10
2022-09-25T05:13:57.236Z,1.00
2022-09-25T05:16:24.219Z,1.00
2022-09-25T05:18:55.164Z,1.40
2022-09-25T05:21:22.052Z,1.17
2022-09-25T05:23:48.698Z,1.17
2022-09-25T05:26:16.108Z,1.48
2022-09-25T05:28:42.842Z,1.70
2022-09-25T05:31:10.252Z,1.35
2022-09-25T05:33:36.985Z,1.25
2022-09-25T05:36:07.818Z,1.27
2022-09-25T05:38:36.231Z,1.23
2022-09-25T05:41:04.136Z,1.10
2022-09-25T05:43:30.946Z,1.15
2022-09-25T05:45:58.655Z,1.02
2022-09-25T05:48:30.202Z,1.25
2022-09-25T05:53:42.730Z,1.33
2022-09-25T05:59:43.658Z,2.20
2022-09-25T06:02:11.386Z,1.27
2022-09-25T06:04:38.221Z,1.70
2022-09-25T06:07:04.907Z,0.95
2022-09-25T06:09:36.297Z,1.60
2022-09-25T06:12:03.238Z,0.93
2022-09-25T06:14:30.178Z,1.00
2022-09-25T06:16:57.532Z,1.00
2022-09-25T06:19:24.201Z,1.30
2022-09-25T06:21:51.279Z,1.60
2022-09-25T06:24:18.042Z,2.13
2022-09-25T06:26:48.500Z,1.63
2022-09-25T06:29:15.231Z,1.67
2022-09-25T06:31:42.052Z,1.92
2022-09-25T06:34:09.533Z,1.42
2022-09-25T06:36:36.409Z,1.67
2022-09-25T06:39:03.393Z,1.45
2022-09-25T06:41:30.187Z,1.73
2022-09-25T06:43:58.603Z,1.02
2022-09-25T06:46:26.971Z,2.10
2022-09-25T06:48:56.047Z,1.70
2022-09-25T06:51:26.501Z,1.40
2022-09-25T06:54:22.537Z,1.45
2022-09-25T06:56:49.486Z,1.17
2022-09-25T06:59:18.242Z,1.30
2022-09-25T07:01:50.102Z,1.67
2022-09-25T07:07:05.856Z,1.70
2022-09-25T07:09:37.254Z,0.98
2022-09-25T07:15:00.738Z,1.30
2022-09-25T07:17:34.283Z,1.35
2022-09-25T07:20:28.647Z,1.17
2022-09-25T07:22:59.330Z,1.60
2022-09-25T07:25:35.252Z,1.10
2022-09-25T07:28:02.477Z,0.95
2022-09-25T07:30:31.652Z,1.08
2022-09-25T07:33:00.261Z,1.00
2022-09-25T07:35:38.549Z,1.52
2022-09-25T07:38:05.866Z,1.02
2022-09-25T07:40:32.655Z,0.80
2022-09-25T07:43:03.010Z,1.05
2022-09-25T07:45:35.763Z,1.23
2022-09-25T07:48:04.332Z,1.15
2022-09-25T07:50:33.659Z,1.00
2022-09-25T07:53:00.781Z,1.08
2022-09-25T07:55:27.922Z,1.20
2022-09-25T07:58:00.324Z,1.10
2022-09-25T08:00:27.262Z,1.33
2022-09-25T08:03:22.832Z,0.70
2022-09-25T08:05:58.598Z,1.05
2022-09-25T08:08:25.776Z,0.98
2022-09-25T08:10:53.113Z,0.80
2022-09-25T08:13:19.950Z,1.00
2022-09-25T08:15:51.189Z,0.88
2022-09-25T08:18:36.763Z,1.05
2022-09-25T08:23:53.443Z,1.73
2022-09-25T08:26:21.838Z,1.02
2022-09-25T08:28:49.161Z,1.00
2022-09-25T08:31:16.102Z,1.15
2022-09-25T08:33:47.219Z,0.77
2022-09-25T08:36:18.102Z,0.55
2022-09-25T08:38:45.525Z,0.93
2022-09-25T08:41:17.925Z,0.98
2022-09-25T08:43:54.191Z,1.20
2022-09-25T08:46:27.831Z,0.70
2022-09-25T08:48:59.340Z,0.63
2022-09-25T08:53:54.381Z,0.90
2022-09-25T08:56:21.390Z,0.82
2022-09-25T08:58:53.659Z,0.85
2022-09-25T09:01:24.196Z,0.77
2022-09-25T09:04:14.060Z,1.50
2022-09-25T09:06:43.698Z,1.13
2022-09-25T09:09:21.368Z,1.10
2022-09-25T09:11:52.506Z,1.08
2022-09-25T09:14:21.559Z,1.15
2022-09-25T09:16:56.417Z,1.10
2022-09-25T09:19:25.089Z,1.10
2022-09-25T09:21:58.426Z,1.10
2022-09-25T09:24:32.303Z,1.15
2022-09-25T09:27:13.563Z,1.05
2022-09-25T09:30:05.830Z,1.10
2022-09-25T09:32:50.978Z,0.90
2022-09-25T09:35:34.670Z,0.70
2022-09-25T09:38:16.570Z,1.00
2022-09-25T09:40:59.954Z,1.13
2022-09-25T09:43:40.558Z,1.25
2022-09-25T09:46:15.511Z,0.80
2022-09-25T09:48:53.290Z,0.60
2022-09-25T09:51:28.156Z,0.70
2022-09-25T09:54:01.437Z,0.73
2022-09-25T09:56:31.267Z,0.80
2022-09-25T09:59:00.599Z,0.60
2022-09-25T10:01:47.950Z,0.40
2022-09-25T10:04:17.870Z,0.70
2022-09-25T10:06:51.025Z,0.77
2022-09-25T10:09:20.274Z,0.70
2022-09-25T10:12:01.933Z,0.50
2022-09-25T10:14:34.632Z,0.70
2022-09-25T10:17:07.346Z,0.65
2022-09-25T10:19:49.038Z,0.57
2022-09-25T10:22:23.634Z,0.80
2022-09-25T10:25:01.941Z,0.50
2022-09-25T10:28:12.242Z,0.63
2022-09-25T10:31:24.608Z,1.98
2022-09-25T10:34:00.746Z,0.40
2022-09-25T10:36:40.141Z,1.02
2022-09-25T10:39:43.707Z,0.73
2022-09-25T10:42:34.581Z,0.47
2022-09-25T10:45:20.321Z,0.55
2022-09-25T10:47:49.652Z,0.45
2022-09-25T10:50:19.920Z,0.50
2022-09-25T10:52:48.689Z,0.50
2022-09-25T10:55:24.471Z,0.40
2022-09-25T10:57:57.679Z,0.32
2022-09-25T11:00:28.158Z,0.70
2022-09-25T11:02:58.063Z,0.60
2022-09-25T11:05:28.891Z,0.50
2022-09-25T11:07:57.867Z,0.70
2022-09-25T11:10:29.015Z,0.68
2022-09-25T11:12:56.613Z,0.57
2022-09-25T11:15:26.300Z,0.40
2022-09-25T11:17:54.513Z,0.70
2022-09-25T11:20:25.259Z,0.77
2022-09-25T11:23:02.007Z,0.60
2022-09-25T11:25:40.271Z,0.60
2022-09-25T11:28:13.341Z,0.60
2022-09-25T11:30:44.783Z,0.40
2022-09-25T11:33:19.057Z,0.60
2022-09-25T11:35:50.590Z,0.60
2022-09-25T11:38:28.955Z,0.40
2022-09-25T11:41:03.061Z,0.60
2022-09-25T11:43:52.102Z,0.55
2022-09-25T11:46:27.763Z,0.98
2022-09-25T11:49:12.063Z,0.95
2022-09-25T11:52:09.852Z,0.80
2022-09-25T11:54:48.987Z,0.80
2022-09-25T11:57:28.568Z,0.80
2022-09-25T12:00:07.693Z,0.60
2022-09-25T12:02:52.222Z,0.60
2022-09-25T12:05:46.898Z,0.80
2022-09-25T12:08:24.445Z,1.05
2022-09-25T12:11:00.373Z,0.82
2022-09-25T12:13:37.353Z,0.73
2022-09-25T12:16:13.500Z,0.60
2022-09-25T12:18:58.954Z,0.55
2022-09-25T12:21:33.754Z,0.68
2022-09-25T12:24:07.480Z,1.02
2022-09-25T12:26:42.265Z,0.50
2022-09-25T12:29:26.152Z,0.63
2022-09-25T12:32:01.743Z,0.60
2022-09-25T12:34:42.108Z,0.68
2022-09-25T12:37:17.883Z,0.63
2022-09-25T12:39:52.052Z,0.60
2022-09-25T12:42:50.441Z,0.50
2022-09-25T12:59:14.413Z,0.40
2022-09-25T13:01:52.942Z,0.60
2022-09-25T13:04:58.764Z,0.68
2022-09-25T13:07:37.455Z,1.25
2022-09-25T13:10:23.177Z,0.50
2022-09-25T13:13:19.447Z,0.45
2022-09-25T13:16:37.545Z,0.38
2022-09-25T13:23:11.232Z,0.40
2022-09-25T13:25:52.769Z,0.45
2022-09-25T13:28:59.376Z,0.47
2022-09-25T13:31:40.507Z,0.50
2022-09-25T13:34:27.835Z,0.32
2022-09-25T13:36:59.515Z,0.30
2022-09-25T13:50:14.451Z,0.30
2022-09-25T13:53:23.567Z,0.38
2022-09-25T14:21:03.878Z,0.40
2022-09-25T14:24:12.891Z,0.60
2022-09-25T14:28:00.846Z,0.30
2022-09-25T15:31:38.008Z,0.52
2022-09-25T16:01:53.000Z,0.60
2022-09-25T16:06:27.074Z,0.77
2022-09-25T16:20:18.605Z,1.15
2022-09-25T17:15:41.861Z,1.02
2022-09-25T17:18:16.677Z,0.98
2022-09-25T18:40:24.688Z,1.58
2022-09-25T20:12:04.604Z,2.35
2022-09-25T20:17:40.988Z,2.30
2022-09-25T20:34:36.579Z,2.75
2022-09-25T20:40:51.472Z,2.65
2022-09-25T20:43:50.257Z,3.08
2022-09-25T20:46:48.289Z,3.47
2022-09-25T20:53:20.835Z,2.83
2022-09-25T20:56:20.493Z,2.67
2022-09-25T21:02:07.971Z,1.90
2022-09-25T21:04:46.601Z,1.98
2022-09-25T21:07:51.658Z,1.77
2022-09-25T21:14:00.169Z,1.52
2022-09-25T21:17:08.862Z,2.42
2022-09-25T21:19:45.048Z,2.15
2022-09-25T21:25:52.651Z,1.65
2022-09-25T21:28:35.510Z,1.88
2022-09-25T21:31:43.823Z,1.77
2022-09-25T21:34:39.620Z,1.58
2022-09-25T21:37:37.838Z,1.67
2022-09-25T21:40:32.960Z,1.50
2022-09-25T21:43:28.958Z,1.67
2022-09-25T21:46:49.297Z,2.15
2022-09-25T22:06:13.205Z,1.20
2022-09-25T22:08:49.938Z,1.30
2022-09-25T22:11:23.577Z,1.63
2022-09-25T22:14:10.884Z,1.50
2022-09-25T22:16:54.487Z,1.70
2022-09-25T22:19:37.033Z,1.48
2022-09-25T22:22:04.841Z,1.00
2022-09-25T22:24:40.499Z,1.20
2022-09-25T22:30:08.263Z,1.55
2022-09-25T22:32:47.766Z,1.60
2022-09-25T22:36:10.389Z,1.50
2022-09-25T22:39:32.109Z,1.60
2022-09-25T22:45:08.466Z,1.45
2022-09-25T22:48:05.697Z,1.70
2022-09-25T22:50:39.299Z,1.27
2022-09-25T22:53:20.207Z,1.58
2022-09-25T22:55:47.255Z,1.30
2022-09-25T22:58:46.932Z,1.60
2022-09-25T23:01:29.949Z,1.70
2022-09-25T23:07:40.150Z,1.20
2022-09-25T23:10:11.561Z,1.25
2022-09-25T23:13:05.947Z,1.60
2022-09-25T23:15:58.642Z,1.25
2022-09-25T23:21:48.312Z,1.58
2022-09-25T23:24:51.374Z,1.30
2022-09-25T23:27:46.988Z,1.45
2022-09-25T23:33:23.112Z,1.42
2022-09-25T23:36:07.567Z,1.80
2022-09-25T23:38:53.103Z,2.10
2022-09-25T23:41:49.432Z,1.52
2022-09-25T23:44:20.439Z,1.40
2022-09-25T23:46:57.405Z,1.60
2022-09-25T23:49:31.068Z,2.13
2022-09-25T23:52:12.952Z,1.90
2022-09-25T23:54:47.370Z,1.70
2022-09-25T23:57:29.149Z,1.88
